createdAt,value
2023-04-14T00:01:17.526Z,8.49
2023-04-14T00:03:45.802Z,8.47
2023-04-14T00:06:13.847Z,8.45
2023-04-14T00:08:41.718Z,8.42
2023-04-14T00:11:09.696Z,8.36
2023-04-14T00:13:38.082Z,8.30
2023-04-14T00:16:07.147Z,8.25
2023-04-14T00:18:34.853Z,8.20
2023-04-14T00:21:02.849Z,8.14
2023-04-14T00:23:30.716Z,8.08
2023-04-14T00:25:58.548Z,8.05
2023-04-14T00:28:26.447Z,8.02
2023-04-14T00:30:54.255Z,7.96
2023-04-14T00:33:22.120Z,7.90
2023-04-14T00:35:49.901Z,7.84
2023-04-14T00:38:17.769Z,7.77
2023-04-14T00:40:45.643Z,7.71
2023-04-14T00:43:13.468Z,7.65
2023-04-14T00:45:46.284Z,7.60
2023-04-14T00:48:15.824Z,7.56
2023-04-14T00:50:44.152Z,7.53
2023-04-14T00:53:13.181Z,7.51
2023-04-14T00:55:41.806Z,7.48
2023-04-14T00:58:10.552Z,7.46
2023-04-14T01:00:38.549Z,7.41
2023-04-14T01:03:07.246Z,7.36
2023-04-14T01:05:35.449Z,7.31
2023-04-14T01:08:04.350Z,7.26
2023-04-14T01:10:41.201Z,7.21
2023-04-14T01:13:20.996Z,7.17
2023-04-14T01:15:56.538Z,7.13
2023-04-14T01:18:53.378Z,7.10
2023-04-14T01:21:26.336Z,7.08
2023-04-14T01:24:15.761Z,7.05
2023-04-14T01:26:45.544Z,7.01
2023-04-14T01:29:58.183Z,6.98
2023-04-14T01:32:29.325Z,6.95
2023-04-14T01:35:03.275Z,6.90
2023-04-14T01:37:35.649Z,6.85
2023-04-14T01:40:11.385Z,6.81
2023-04-14T01:42:46.488Z,6.77
2023-04-14T01:45:23.794Z,6.75
2023-04-14T01:47:52.584Z,6.72
2023-04-14T01:50:22.551Z,6.70
2023-04-14T01:52:54.287Z,6.69
2023-04-14T01:55:25.658Z,6.68
2023-04-14T01:57:57.606Z,6.65
2023-04-14T02:00:26.624Z,6.61
2023-04-14T02:02:55.076Z,6.57
2023-04-14T02:05:24.539Z,6.51
2023-04-14T02:07:55.011Z,6.46
2023-04-14T02:10:24.461Z,6.42
2023-04-14T02:12:57.082Z,6.39
2023-04-14T02:15:28.672Z,6.38
2023-04-14T02:17:58.342Z,6.37
2023-04-14T02:20:28.473Z,6.36
2023-04-14T02:22:56.798Z,6.35
2023-04-14T02:25:29.930Z,6.31
2023-04-14T02:28:02.864Z,6.28
2023-04-14T02:30:35.363Z,6.24
2023-04-14T02:33:07.349Z,6.20
2023-04-14T02:35:46.331Z,6.16
2023-04-14T02:38:22.268Z,6.12
2023-04-14T02:40:50.879Z,6.09
2023-04-14T02:43:24.952Z,6.09
2023-04-14T02:45:56.218Z,6.08
2023-04-14T02:48:28.159Z,6.08
2023-04-14T02:50:59.422Z,6.08
2023-04-14T02:53:28.732Z,6.06
2023-04-14T02:56:07.452Z,6.05
2023-04-14T02:58:38.273Z,6.05
2023-04-14T03:01:07.098Z,6.03
2023-04-14T03:03:37.689Z,6.00
2023-04-14T03:06:07.302Z,5.99
2023-04-14T03:08:37.450Z,5.98
2023-04-14T03:11:06.835Z,5.97
2023-04-14T03:13:35.650Z,5.97
2023-04-14T03:16:04.911Z,5.97
2023-04-14T03:18:35.377Z,5.98
2023-04-14T03:21:05.174Z,6.00
2023-04-14T03:23:36.222Z,6.00
2023-04-14T03:26:07.815Z,5.98
2023-04-14T03:28:39.603Z,5.97
2023-04-14T03:31:11.323Z,5.95
2023-04-14T03:33:55.706Z,5.93
2023-04-14T03:36:26.395Z,5.92
2023-04-14T03:38:59.902Z,5.92
2023-04-14T03:41:30.973Z,5.92
2023-04-14T03:43:59.967Z,5.91
2023-04-14T03:46:29.271Z,5.92
2023-04-14T03:48:59.776Z,5.91
2023-04-14T03:51:32.011Z,5.90
2023-04-14T03:54:02.570Z,5.88
2023-04-14T03:56:33.398Z,5.87
2023-04-14T03:59:02.919Z,5.87
2023-04-14T04:01:33.198Z,5.85
2023-04-14T04:04:03.258Z,5.86
2023-04-14T04:06:33.540Z,5.88
2023-04-14T04:09:02.797Z,5.95
2023-04-14T04:11:34.850Z,5.98
2023-04-14T04:14:07.166Z,5.99
2023-04-14T04:16:38.530Z,6.03
2023-04-14T04:19:08.244Z,6.07
2023-04-14T04:21:41.737Z,6.09
2023-04-14T04:24:14.791Z,6.08
2023-04-14T04:26:46.728Z,6.08
2023-04-14T04:29:17.708Z,6.15
2023-04-14T04:31:49.813Z,6.23
2023-04-14T04:34:23.766Z,6.34
2023-04-14T04:36:55.736Z,6.51
2023-04-14T04:39:25.761Z,6.69
2023-04-14T04:42:05.749Z,6.84
2023-04-14T04:44:37.741Z,7.00
2023-04-14T04:47:09.808Z,7.15
2023-04-14T04:49:41.780Z,7.28
2023-04-14T04:52:12.272Z,7.38
2023-04-14T04:54:44.755Z,7.49
2023-04-14T04:57:15.751Z,7.59
2023-04-14T04:59:47.741Z,7.70
2023-04-14T05:02:19.951Z,7.83
2023-04-14T05:04:50.902Z,7.93
2023-04-14T05:07:22.834Z,8.04
2023-04-14T05:09:54.808Z,8.20
2023-04-14T05:12:26.827Z,8.31
2023-04-14T05:14:58.772Z,8.39
2023-04-14T05:17:29.904Z,8.49
2023-04-14T05:20:00.822Z,8.54
2023-04-14T05:30:04.816Z,8.98
2023-04-14T05:32:32.655Z,9.08
2023-04-14T05:35:00.642Z,9.12
2023-04-14T05:37:30.222Z,9.10
2023-04-14T05:39:58.688Z,9.21
2023-04-14T05:42:26.636Z,9.30
2023-04-14T05:44:54.366Z,9.39
2023-04-14T05:47:22.249Z,9.47
2023-04-14T05:49:50.003Z,9.51
2023-04-14T05:52:18.825Z,9.59
2023-04-14T05:54:46.589Z,9.68
2023-04-14T05:57:14.342Z,9.84
2023-04-14T05:59:42.151Z,9.97
2023-04-14T06:02:10.071Z,10.01
2023-04-14T06:04:38.136Z,10.08
2023-04-14T06:07:05.996Z,10.11
2023-04-14T06:09:33.721Z,10.20
2023-04-14T06:12:01.836Z,10.34
2023-04-14T06:14:29.719Z,10.48
2023-04-14T06:16:57.932Z,10.56
2023-04-14T06:19:26.145Z,10.65
2023-04-14T06:21:53.959Z,10.68
2023-04-14T06:24:21.819Z,10.78
2023-04-14T06:26:49.748Z,11.00
2023-04-14T06:29:18.415Z,11.08
2023-04-14T06:31:47.149Z,11.20
2023-04-14T06:34:14.986Z,11.32
2023-04-14T06:36:42.738Z,11.49
2023-04-14T06:39:12.796Z,11.45
2023-04-14T06:41:40.824Z,11.41
2023-04-14T06:44:09.291Z,11.50
2023-04-14T06:46:37.109Z,11.76
2023-04-14T06:49:05.542Z,12.07
2023-04-14T06:51:34.279Z,12.26
2023-04-14T06:54:02.798Z,12.31
2023-04-14T06:56:30.968Z,12.41
2023-04-14T06:58:58.684Z,12.31
2023-04-14T07:01:26.456Z,12.23
2023-04-14T07:03:54.434Z,12.15
2023-04-14T07:06:22.239Z,12.21
2023-04-14T07:08:49.986Z,12.16
2023-04-14T07:11:17.807Z,12.01
2023-04-14T07:13:45.631Z,11.87
2023-04-14T07:16:13.510Z,11.74
2023-04-14T07:18:41.400Z,11.70
2023-04-14T07:21:09.208Z,11.68
2023-04-14T07:23:37.666Z,11.62
2023-04-14T07:26:06.187Z,11.61
2023-04-14T07:28:34.225Z,11.65
2023-04-14T07:31:09.140Z,11.67
2023-04-14T07:33:37.258Z,11.71
2023-04-14T07:36:05.301Z,11.81
2023-04-14T07:38:33.321Z,11.87
2023-04-14T07:41:06.469Z,11.90
2023-04-14T07:43:37.691Z,11.94
2023-04-14T07:46:07.778Z,12.00
2023-04-14T07:48:37.687Z,12.07
2023-04-14T07:51:07.097Z,12.11
2023-04-14T07:53:35.153Z,12.16
2023-04-14T07:56:03.324Z,12.22
2023-04-14T07:58:31.117Z,12.31
2023-04-14T08:00:58.841Z,12.40
2023-04-14T08:03:27.239Z,12.46
2023-04-14T08:05:55.722Z,12.52
2023-04-14T08:08:24.673Z,12.63
2023-04-14T08:10:52.578Z,12.73
2023-04-14T08:13:20.413Z,12.82
2023-04-14T08:15:48.986Z,12.89
2023-04-14T08:18:17.200Z,12.96
2023-04-14T08:20:45.230Z,13.04
2023-04-14T08:23:13.178Z,13.12
2023-04-14T08:25:42.342Z,13.19
2023-04-14T08:28:10.444Z,13.28
2023-04-14T08:30:38.490Z,13.37
2023-04-14T08:33:06.343Z,13.43
2023-04-14T08:35:42.162Z,13.49
2023-04-14T08:38:11.270Z,13.58
2023-04-14T08:40:41.849Z,13.67
2023-04-14T08:43:13.158Z,13.74
2023-04-14T08:45:44.603Z,13.80
2023-04-14T08:48:16.941Z,13.83
2023-04-14T08:50:56.327Z,13.88
2023-04-14T08:53:26.580Z,13.98
2023-04-14T08:55:58.007Z,14.11
2023-04-14T08:58:26.677Z,14.23
2023-04-14T09:00:55.938Z,14.28
2023-04-14T09:03:25.205Z,14.31
2023-04-14T09:05:53.611Z,14.28
2023-04-14T09:08:21.854Z,14.23
2023-04-14T09:10:50.951Z,14.19
2023-04-14T09:13:21.760Z,14.20
2023-04-14T09:15:50.171Z,14.25
2023-04-14T09:18:18.096Z,14.43
2023-04-14T09:20:48.128Z,14.62
2023-04-14T09:23:37.451Z,14.74
2023-04-14T09:26:09.313Z,14.78
2023-04-14T09:28:37.965Z,14.86
2023-04-14T09:31:06.483Z,14.92
2023-04-14T09:33:39.907Z,15.01
2023-04-14T09:36:18.554Z,15.12
2023-04-14T09:38:47.318Z,15.17
2023-04-14T09:41:20.217Z,15.25
2023-04-14T09:43:49.295Z,15.31
2023-04-14T09:51:11.640Z,15.47
2023-04-14T09:53:41.269Z,15.49
2023-04-14T09:56:11.713Z,15.53
2023-04-14T09:58:42.235Z,15.67
2023-04-14T10:01:15.823Z,15.96
2023-04-14T10:03:46.452Z,16.17
2023-04-14T10:06:20.738Z,16.28
2023-04-14T10:08:50.519Z,16.44
2023-04-14T10:11:23.152Z,16.38
2023-04-14T10:13:54.280Z,16.30
2023-04-14T10:16:23.357Z,16.34
2023-04-14T10:18:53.298Z,16.32
2023-04-14T10:21:23.189Z,16.31
2023-04-14T10:23:52.110Z,16.35
2023-04-14T10:26:19.999Z,16.42
2023-04-14T10:28:51.064Z,16.47
2023-04-14T10:31:24.000Z,16.43
2023-04-14T10:33:52.682Z,16.58
2023-04-14T10:36:29.252Z,16.83
2023-04-14T10:39:03.349Z,17.08
2023-04-14T10:41:43.898Z,17.07
2023-04-14T10:44:35.620Z,16.88
2023-04-14T10:47:09.702Z,16.84
2023-04-14T10:49:39.537Z,16.87
2023-04-14T10:52:17.022Z,16.85
2023-04-14T10:55:02.760Z,16.83
2023-04-14T10:57:30.594Z,16.63
2023-04-14T11:00:00.042Z,16.59
2023-04-14T11:02:33.511Z,16.73
2023-04-14T11:05:11.037Z,16.75
2023-04-14T11:07:45.826Z,16.69
2023-04-14T11:10:16.730Z,16.57
2023-04-14T11:12:46.194Z,16.58
2023-04-14T11:15:15.739Z,16.71
2023-04-14T11:17:43.940Z,16.73
2023-04-14T11:20:16.915Z,16.62
2023-04-14T11:22:47.030Z,16.52
2023-04-14T11:25:16.963Z,16.48
2023-04-14T11:27:47.217Z,16.43
2023-04-14T11:30:17.655Z,16.34
2023-04-14T11:32:48.099Z,16.15
2023-04-14T11:35:16.678Z,16.00
2023-04-14T11:37:46.178Z,15.96
2023-04-14T11:40:15.987Z,15.96
2023-04-14T11:42:52.164Z,15.97
2023-04-14T11:45:20.954Z,15.89
2023-04-14T11:47:59.234Z,15.86
2023-04-14T11:50:30.688Z,15.94
2023-04-14T11:53:03.172Z,16.00
2023-04-14T11:55:31.461Z,15.91
2023-04-14T11:57:59.422Z,15.92
2023-04-14T12:00:28.130Z,15.90
2023-04-14T12:02:57.061Z,15.82
2023-04-14T12:05:30.508Z,15.83
2023-04-14T12:08:00.468Z,16.16
2023-04-14T12:10:28.820Z,16.55
2023-04-14T12:13:08.827Z,16.81
2023-04-14T12:15:40.802Z,17.03
2023-04-14T12:18:11.742Z,16.96
2023-04-14T12:20:47.374Z,16.95
2023-04-14T12:23:16.176Z,16.95
2023-04-14T12:25:44.177Z,16.77
2023-04-14T12:28:25.362Z,16.53
2023-04-14T12:30:56.685Z,16.54
2023-04-14T12:33:27.890Z,16.61
2023-04-14T12:36:12.560Z,16.68
2023-04-14T12:38:40.488Z,16.71
2023-04-14T12:41:08.607Z,16.82
2023-04-14T12:43:38.887Z,16.96
2023-04-14T12:46:09.999Z,17.07
2023-04-14T12:48:40.298Z,17.03
2023-04-14T12:51:13.825Z,16.92
2023-04-14T12:53:44.253Z,16.87
2023-04-14T12:56:16.114Z,16.82
2023-04-14T12:58:48.738Z,16.77
2023-04-14T13:01:19.071Z,16.67
2023-04-14T13:03:52.039Z,16.56
2023-04-14T13:06:22.979Z,16.39
2023-04-14T13:08:56.516Z,16.29
2023-04-14T13:11:24.829Z,16.18
2023-04-14T13:13:53.896Z,16.05
2023-04-14T13:16:22.673Z,16.14
2023-04-14T13:18:54.112Z,16.37
2023-04-14T13:21:21.957Z,16.42
2023-04-14T13:23:49.875Z,16.40
2023-04-14T13:26:17.693Z,16.44
2023-04-14T13:28:46.103Z,16.59
2023-04-14T13:31:17.753Z,16.83
2023-04-14T13:33:45.917Z,16.99
2023-04-14T13:36:14.097Z,17.07
2023-04-14T13:38:42.170Z,17.21
2023-04-14T13:41:10.105Z,17.25
2023-04-14T13:43:38.016Z,17.16
2023-04-14T13:46:05.862Z,17.01
2023-04-14T13:48:33.772Z,16.94
2023-04-14T13:51:02.047Z,16.86
2023-04-14T13:53:29.841Z,16.77
2023-04-14T13:55:57.666Z,16.65
2023-04-14T13:58:26.381Z,16.60
2023-04-14T14:00:55.446Z,16.66
2023-04-14T14:03:25.326Z,16.72
2023-04-14T14:05:53.439Z,16.74
2023-04-14T14:08:21.392Z,16.86
2023-04-14T14:10:49.357Z,17.10
2023-04-14T14:13:18.553Z,17.24
2023-04-14T14:15:47.870Z,17.35
2023-04-14T14:18:16.682Z,17.44
2023-04-14T14:20:44.707Z,17.24
2023-04-14T14:23:13.067Z,16.91
2023-04-14T14:25:42.416Z,16.64
2023-04-14T14:28:11.154Z,16.56
2023-04-14T14:30:39.273Z,16.50
2023-04-14T14:33:07.637Z,16.48
2023-04-14T14:35:35.544Z,16.43
2023-04-14T14:38:03.378Z,16.42
2023-04-14T14:40:31.630Z,16.57
2023-04-14T14:43:00.127Z,16.69
2023-04-14T14:45:31.008Z,16.71
2023-04-14T14:47:59.588Z,16.61
2023-04-14T14:50:27.432Z,16.46
2023-04-14T14:52:56.993Z,16.33
2023-04-14T14:55:25.134Z,16.24
2023-04-14T14:57:53.127Z,16.17
2023-04-14T15:00:21.195Z,16.12
2023-04-14T15:02:49.165Z,16.09
2023-04-14T15:05:17.333Z,16.05
2023-04-14T15:07:45.325Z,16.01
2023-04-14T15:10:14.707Z,15.98
2023-04-14T15:12:42.552Z,15.92
2023-04-14T15:15:11.098Z,15.86
2023-04-14T15:17:39.090Z,15.82
2023-04-14T15:20:08.447Z,15.83
2023-04-14T15:22:36.577Z,15.84
2023-04-14T15:25:05.200Z,15.84
2023-04-14T15:27:33.053Z,15.81
2023-04-14T15:30:01.088Z,15.79
2023-04-14T15:32:29.088Z,15.79
2023-04-14T15:34:57.374Z,15.84
2023-04-14T15:37:26.529Z,15.83
2023-04-14T15:39:55.486Z,15.79
2023-04-14T15:42:23.446Z,15.72
2023-04-14T15:44:51.552Z,15.62
2023-04-14T15:47:19.602Z,15.55
2023-04-14T15:49:49.880Z,15.53
2023-04-14T15:52:21.027Z,15.59
2023-04-14T15:54:48.777Z,15.64
2023-04-14T15:57:16.908Z,15.66
2023-04-14T15:59:44.689Z,15.61
2023-04-14T16:02:12.567Z,15.62
2023-04-14T16:04:40.670Z,15.59
2023-04-14T16:07:08.862Z,15.51
2023-04-14T16:09:36.873Z,15.41
2023-04-14T16:12:04.693Z,15.30
2023-04-14T16:14:33.804Z,15.20
2023-04-14T16:17:02.193Z,15.15
2023-04-14T16:19:30.141Z,15.08
2023-04-14T16:21:58.059Z,14.97
2023-04-14T16:24:25.991Z,14.88
2023-04-14T16:26:53.863Z,14.82
2023-04-14T16:29:22.347Z,14.73
2023-04-14T16:31:50.326Z,14.61
2023-04-14T16:34:20.558Z,14.52
2023-04-14T16:36:48.401Z,14.42
2023-04-14T16:39:16.283Z,14.32
2023-04-14T16:41:45.820Z,14.21
2023-04-14T16:44:13.940Z,14.11
2023-04-14T16:46:41.875Z,14.03
2023-04-14T16:49:10.199Z,13.94
2023-04-14T16:51:38.574Z,13.84
2023-04-14T16:54:06.487Z,13.74
2023-04-14T16:56:36.793Z,13.66
2023-04-14T16:59:07.269Z,13.56
2023-04-14T17:01:35.263Z,13.48
2023-04-14T17:04:04.187Z,13.38
2023-04-14T17:06:32.592Z,13.30
2023-04-14T17:09:00.966Z,13.22
2023-04-14T17:11:28.853Z,13.14
2023-04-14T17:13:56.687Z,13.05
2023-04-14T17:16:24.738Z,12.98
2023-04-14T17:18:53.562Z,12.90
2023-04-14T17:21:21.387Z,12.80
2023-04-14T17:23:49.339Z,12.74
2023-04-14T17:26:17.140Z,12.74
2023-04-14T17:28:45.989Z,12.69
2023-04-14T17:31:14.592Z,12.62
2023-04-14T17:33:47.234Z,12.56
2023-04-14T17:36:16.693Z,12.51
2023-04-14T17:38:48.172Z,12.46
2023-04-14T17:41:16.009Z,12.39
2023-04-14T17:43:43.901Z,12.34
2023-04-14T17:46:12.128Z,12.33
2023-04-14T17:48:40.478Z,12.32
2023-04-14T17:51:08.435Z,12.28
2023-04-14T17:53:36.695Z,12.20
2023-04-14T17:56:06.056Z,12.12
2023-04-14T17:58:33.879Z,12.04
2023-04-14T18:01:01.666Z,11.98
2023-04-14T18:03:29.761Z,11.91
2023-04-14T18:05:57.621Z,11.86
2023-04-14T18:08:26.067Z,11.81
2023-04-14T18:10:54.246Z,11.77
2023-04-14T18:13:22.201Z,11.72
2023-04-14T18:15:50.051Z,11.70
2023-04-14T18:18:17.906Z,11.68
2023-04-14T18:20:49.076Z,11.64
2023-04-14T18:23:17.639Z,11.57
2023-04-14T18:28:16.669Z,11.43
2023-04-14T18:30:51.930Z,11.37
2023-04-14T18:33:19.739Z,11.33
2023-04-14T18:35:55.327Z,11.29
2023-04-14T18:38:24.833Z,11.23
2023-04-14T18:40:53.298Z,11.20
2023-04-14T18:43:21.296Z,11.18
2023-04-14T18:45:50.274Z,11.18
2023-04-14T18:48:18.182Z,11.17
2023-04-14T18:50:46.752Z,11.17
2023-04-14T18:53:14.936Z,11.17
2023-04-14T18:55:45.111Z,11.14
2023-04-14T18:58:13.908Z,11.14
2023-04-14T19:00:45.252Z,11.15
2023-04-14T19:03:13.655Z,11.17
2023-04-14T19:05:41.734Z,11.19
2023-04-14T19:08:09.639Z,11.19
2023-04-14T19:10:37.768Z,11.18
2023-04-14T19:13:05.927Z,11.13
2023-04-14T19:15:33.971Z,11.08
2023-04-14T19:18:03.712Z,11.03
2023-04-14T19:20:32.152Z,10.96
2023-04-14T19:23:00.443Z,10.93
2023-04-14T19:25:29.543Z,10.91
2023-04-14T19:27:58.627Z,10.90
2023-04-14T19:30:26.433Z,10.89
2023-04-14T19:32:54.666Z,10.86
2023-04-14T19:35:26.641Z,10.84
2023-04-14T19:37:57.097Z,10.81
2023-04-14T19:40:25.540Z,10.78
2023-04-14T19:42:55.360Z,10.74
2023-04-14T19:45:23.559Z,10.70
2023-04-14T19:47:52.026Z,10.64
2023-04-14T19:50:22.754Z,10.60
2023-04-14T19:52:52.164Z,10.56
2023-04-14T19:55:20.124Z,10.55
2023-04-14T19:57:48.384Z,10.54
2023-04-14T20:00:16.980Z,10.53
2023-04-14T20:02:45.232Z,10.53
2023-04-14T20:05:13.422Z,10.58
2023-04-14T20:07:41.490Z,10.61
2023-04-14T20:10:10.272Z,10.65
2023-04-14T20:12:38.334Z,10.66
2023-04-14T20:15:07.312Z,10.66
2023-04-14T20:17:35.224Z,10.64
2023-04-14T20:20:06.064Z,10.63
2023-04-14T20:22:34.360Z,10.64
2023-04-14T20:25:02.499Z,10.63
2023-04-14T20:27:31.708Z,10.62
2023-04-14T20:29:59.730Z,10.58
2023-04-14T20:32:27.582Z,10.54
2023-04-14T20:34:55.599Z,10.51
2023-04-14T20:37:23.879Z,10.46
2023-04-14T20:39:53.307Z,10.41
2023-04-14T20:42:21.292Z,10.35
2023-04-14T20:44:49.268Z,10.30
2023-04-14T20:47:17.421Z,10.23
2023-04-14T20:49:45.444Z,10.20
2023-04-14T20:52:13.208Z,10.19
2023-04-14T20:54:41.097Z,10.20
2023-04-14T20:57:09.960Z,10.22
2023-04-14T20:59:37.870Z,10.24
2023-04-14T21:02:06.584Z,10.26
2023-04-14T21:04:36.102Z,10.26
2023-04-14T21:07:04.867Z,10.26
2023-04-14T21:09:32.690Z,10.27
2023-04-14T21:12:14.293Z,10.26
2023-04-14T21:15:44.577Z,10.26
2023-04-14T21:17:36.635Z,10.29
2023-04-14T21:20:06.018Z,10.30
2023-04-14T21:22:35.302Z,10.33
2023-04-14T21:25:03.507Z,10.34
2023-04-14T21:27:31.481Z,10.34
2023-04-14T21:29:59.556Z,10.34
2023-04-14T21:32:27.489Z,10.34
2023-04-14T21:34:55.721Z,10.34
2023-04-14T21:37:24.177Z,10.35
2023-04-14T21:39:52.093Z,10.36
2023-04-14T21:42:19.933Z,10.36
2023-04-14T21:44:49.424Z,10.37
2023-04-14T21:47:17.929Z,10.39
2023-04-14T21:49:46.149Z,10.41
2023-04-14T21:52:13.994Z,10.41
2023-04-14T21:54:44.410Z,10.42
2023-04-14T21:57:12.449Z,10.42
2023-04-14T21:59:40.254Z,10.39
2023-04-14T22:02:08.073Z,10.37
2023-04-14T22:04:37.469Z,10.35
2023-04-14T22:07:06.608Z,10.33
2023-04-14T22:09:34.636Z,10.35
2023-04-14T22:12:03.456Z,10.38
2023-04-14T22:14:31.430Z,10.40
2023-04-14T22:17:00.935Z,10.42
2023-04-14T22:19:29.171Z,10.42
2023-04-14T22:21:57.060Z,10.41
2023-04-14T22:24:25.406Z,10.38
2023-04-14T22:26:54.193Z,10.39
2023-04-14T22:29:22.021Z,10.41
2023-04-14T22:31:49.931Z,10.44
2023-04-14T22:34:17.890Z,10.47
2023-04-14T22:36:45.801Z,10.46
2023-04-14T22:39:14.279Z,10.47
2023-04-14T22:41:42.314Z,10.47
2023-04-14T22:44:10.160Z,10.46
2023-04-14T22:46:38.072Z,10.46
2023-04-14T22:49:06.386Z,10.44
2023-04-14T22:51:34.353Z,10.43
2023-04-14T22:54:03.823Z,10.43
2023-04-14T22:56:31.762Z,10.44
2023-04-14T22:58:59.911Z,10.46
2023-04-14T23:01:29.612Z,10.48
2023-04-14T23:03:57.665Z,10.49
2023-04-14T23:06:25.941Z,10.49
2023-04-14T23:08:53.854Z,10.46
2023-04-14T23:11:22.118Z,10.44
2023-04-14T23:13:50.429Z,10.44
2023-04-14T23:16:21.893Z,10.45
2023-04-14T23:18:52.347Z,10.45
2023-04-14T23:21:22.377Z,10.47
2023-04-14T23:23:51.917Z,10.48
2023-04-14T23:26:21.914Z,10.49
2023-04-14T23:28:49.836Z,10.49
2023-04-14T23:31:18.211Z,10.46
2023-04-14T23:33:48.778Z,10.45
2023-04-14T23:36:17.514Z,10.45
2023-04-14T23:38:45.576Z,10.44
2023-04-14T23:41:13.513Z,10.46
2023-04-14T23:43:41.519Z,10.47
2023-04-14T23:46:09.671Z,10.47
2023-04-14T23:48:38.101Z,10.47
2023-04-14T23:51:16.265Z,10.47
2023-04-14T23:53:46.173Z,10.45
2023-04-14T23:56:13.989Z,10.45
2023-04-14T23:58:44.021Z,10.43
